Terminal Aerodrome Forecast
Issued by NWS

Current Version | Previous Version | Graphics & Text | Print | Product List | Glossary On
Versions: 1 2 3 4 5 6 7 8 9 10 11 12 13 14 15 16 17 18 19 20
000
FTUS41 KILN 181100
TAFLCK
TAF
KLCK 181124Z 1812/1912 29012KT P6SM BKN025
     FM181600 31014G24KT P6SM VCSH OVC025
      TEMPO 1819/1823 -SHRA
     FM182300 32012G18KT P6SM BKN025
      TEMPO 1823/1902 OVC018
     FM190200 33010KT P6SM OVC015
      TEMPO 1905/1908 BKN025
     FM190800 32004KT P6SM SCT025=

USA.gov is the U.S. government's official web portal to all federal, state and local government web resources and services.